sensor_id;sensor_type;location;lat;lon;timestamp;temperature;humidity
4596;DHT22;2310;49.978;8.742;2024-02-04T00:01:00;11.30;99.90
4596;DHT22;2310;49.978;8.742;2024-02-04T00:05:02;11.30;99.90
4596;DHT22;2310;49.978;8.742;2024-02-04T00:09:03;11.30;99.90
4596;DHT22;2310;49.978;8.742;2024-02-04T00:13:05;11.40;99.90
4596;DHT22;2310;49.978;8.742;2024-02-04T00:17:07;11.30;99.90
4596;DHT22;2310;49.978;8.742;2024-02-04T00:21:09;11.30;99.90
4596;DHT22;2310;49.978;8.742;2024-02-04T00:25:10;11.20;99.90
4596;DHT22;2310;49.978;8.742;2024-02-04T00:29:13;11.30;99.90
4596;DHT22;2310;49.978;8.742;2024-02-04T00:33:14;11.20;99.90
4596;DHT22;2310;49.978;8.742;2024-02-04T00:37:16;11.30;99.90
4596;DHT22;2310;49.978;8.742;2024-02-04T00:41:17;11.40;99.90
4596;DHT22;2310;49.978;8.742;2024-02-04T00:45:18;11.40;99.90
4596;DHT22;2310;49.978;8.742;2024-02-04T00:49:20;11.20;99.90
4596;DHT22;2310;49.978;8.742;2024-02-04T00:53:21;11.20;99.90
4596;DHT22;2310;49.978;8.742;2024-02-04T00:57:23;11.10;99.90
4596;DHT22;2310;49.978;8.742;2024-02-04T01:01:25;11.10;99.90
4596;DHT22;2310;49.978;8.742;2024-02-04T01:05:26;11.20;99.90
4596;DHT22;2310;49.978;8.742;2024-02-04T01:09:28;11.20;99.90
4596;DHT22;2310;49.978;8.742;2024-02-04T01:13:30;11.30;99.90
4596;DHT22;2310;49.978;8.742;2024-02-04T01:17:32;11.30;99.90
4596;DHT22;2310;49.978;8.742;2024-02-04T01:21:35;11.40;99.90
4596;DHT22;2310;49.978;8.742;2024-02-04T01:25:36;11.10;99.90
4596;DHT22;2310;49.978;8.742;2024-02-04T01:29:39;11.00;99.90
4596;DHT22;2310;49.978;8.742;2024-02-04T01:33:40;11.00;99.90
4596;DHT22;2310;49.978;8.742;2024-02-04T01:37:42;10.90;99.90
4596;DHT22;2310;49.978;8.742;2024-02-04T01:41:48;11.00;99.90
4596;DHT22;2310;49.978;8.742;2024-02-04T01:45:50;11.10;99.90
4596;DHT22;2310;49.978;8.742;2024-02-04T01:49:53;11.30;99.90
4596;DHT22;2310;49.978;8.742;2024-02-04T01:53:54;11.50;99.90
4596;DHT22;2310;49.978;8.742;2024-02-04T01:57:55;11.30;99.90
4596;DHT22;2310;49.978;8.742;2024-02-04T02:01:59;11.40;99.90
4596;DHT22;2310;49.978;8.742;2024-02-04T02:06:00;11.40;99.90
4596;DHT22;2310;49.978;8.742;2024-02-04T02:10:02;11.20;99.90
4596;DHT22;2310;49.978;8.742;2024-02-04T02:14:10;11.20;99.90
4596;DHT22;2310;49.978;8.742;2024-02-04T02:18:14;11.00;99.90
4596;DHT22;2310;49.978;8.742;2024-02-04T02:22:32;11.10;99.90
4596;DHT22;2310;49.978;8.742;2024-02-04T02:26:33;11.10;99.90
4596;DHT22;2310;49.978;8.742;2024-02-04T02:30:37;11.20;99.90
4596;DHT22;2310;49.978;8.742;2024-02-04T02:34:38;11.00;99.90
4596;DHT22;2310;49.978;8.742;2024-02-04T02:38:55;10.90;99.90
4596;DHT22;2310;49.978;8.742;2024-02-04T02:42:57;10.90;99.90
4596;DHT22;2310;49.978;8.742;2024-02-04T02:46:59;10.80;99.90
4596;DHT22;2310;49.978;8.742;2024-02-04T02:51:04;10.90;99.90
4596;DHT22;2310;49.978;8.742;2024-02-04T02:55:06;11.00;99.90
4596;DHT22;2310;49.978;8.742;2024-02-04T02:59:07;10.60;99.90
4596;DHT22;2310;49.978;8.742;2024-02-04T03:03:09;10.80;99.90
4596;DHT22;2310;49.978;8.742;2024-02-04T03:07:10;10.70;99.90
4596;DHT22;2310;49.978;8.742;2024-02-04T03:11:12;10.70;99.90
4596;DHT22;2310;49.978;8.742;2024-02-04T03:15:13;10.70;99.90
4596;DHT22;2310;49.978;8.742;2024-02-04T03:19:14;10.60;99.90
4596;DHT22;2310;49.978;8.742;2024-02-04T03:23:16;10.50;99.90
4596;DHT22;2310;49.978;8.742;2024-02-04T03:27:18;10.50;99.90
4596;DHT22;2310;49.978;8.742;2024-02-04T03:31:20;10.60;99.90
4596;DHT22;2310;49.978;8.742;2024-02-04T03:35:22;10.50;99.90
4596;DHT22;2310;49.978;8.742;2024-02-04T03:39:23;10.60;99.90
4596;DHT22;2310;49.978;8.742;2024-02-04T03:43:24;10.70;99.90
4596;DHT22;2310;49.978;8.742;2024-02-04T03:47:26;10.80;99.90
4596;DHT22;2310;49.978;8.742;2024-02-04T03:51:27;10.80;99.90
4596;DHT22;2310;49.978;8.742;2024-02-04T03:55:28;10.80;99.90
4596;DHT22;2310;49.978;8.742;2024-02-04T03:59:30;10.70;99.90
4596;DHT22;2310;49.978;8.742;2024-02-04T04:03:31;10.60;99.90
4596;DHT22;2310;49.978;8.742;2024-02-04T04:07:33;10.70;99.90
4596;DHT22;2310;49.978;8.742;2024-02-04T04:11:34;10.80;99.90
4596;DHT22;2310;49.978;8.742;2024-02-04T04:15:35;10.70;99.90
4596;DHT22;2310;49.978;8.742;2024-02-04T04:19:38;10.70;99.90
4596;DHT22;2310;49.978;8.742;2024-02-04T04:23:41;10.60;99.90
4596;DHT22;2310;49.978;8.742;2024-02-04T04:27:42;10.70;99.90
4596;DHT22;2310;49.978;8.742;2024-02-04T04:31:43;10.50;99.90
4596;DHT22;2310;49.978;8.742;2024-02-04T04:35:46;10.50;99.90
4596;DHT22;2310;49.978;8.742;2024-02-04T04:39:48;10.50;99.90
4596;DHT22;2310;49.978;8.742;2024-02-04T04:43:49;10.60;99.90
4596;DHT22;2310;49.978;8.742;2024-02-04T04:47:51;10.50;99.90
4596;DHT22;2310;49.978;8.742;2024-02-04T04:51:52;10.60;99.90
4596;DHT22;2310;49.978;8.742;2024-02-04T04:55:54;10.60;99.90
4596;DHT22;2310;49.978;8.742;2024-02-04T04:59:55;10.70;99.90
4596;DHT22;2310;49.978;8.742;2024-02-04T05:03:59;10.80;99.90
4596;DHT22;2310;49.978;8.742;2024-02-04T05:08:02;10.70;99.90
4596;DHT22;2310;49.978;8.742;2024-02-04T05:12:03;10.80;99.90
4596;DHT22;2310;49.978;8.742;2024-02-04T05:16:05;10.60;99.90
4596;DHT22;2310;49.978;8.742;2024-02-04T05:20:07;10.50;99.90
4596;DHT22;2310;49.978;8.742;2024-02-04T05:24:08;10.50;99.90
4596;DHT22;2310;49.978;8.742;2024-02-04T05:28:10;10.60;99.90
4596;DHT22;2310;49.978;8.742;2024-02-04T05:32:11;10.70;99.90
4596;DHT22;2310;49.978;8.742;2024-02-04T05:36:13;10.60;99.90
4596;DHT22;2310;49.978;8.742;2024-02-04T05:40:14;10.70;99.90
4596;DHT22;2310;49.978;8.742;2024-02-04T05:44:18;10.70;99.90
4596;DHT22;2310;49.978;8.742;2024-02-04T05:51:08;10.80;99.90
4596;DHT22;2310;49.978;8.742;2024-02-04T05:55:10;10.90;99.90
4596;DHT22;2310;49.978;8.742;2024-02-04T05:59:12;10.60;99.90
4596;DHT22;2310;49.978;8.742;2024-02-04T06:03:13;10.80;99.90
4596;DHT22;2310;49.978;8.742;2024-02-04T06:07:15;10.70;99.90
4596;DHT22;2310;49.978;8.742;2024-02-04T06:11:16;10.60;99.90
4596;DHT22;2310;49.978;8.742;2024-02-04T06:15:18;10.80;99.90
4596;DHT22;2310;49.978;8.742;2024-02-04T06:19:21;10.70;99.90
4596;DHT22;2310;49.978;8.742;2024-02-04T06:23:22;10.60;99.90
4596;DHT22;2310;49.978;8.742;2024-02-04T06:27:24;10.60;99.90
4596;DHT22;2310;49.978;8.742;2024-02-04T06:31:25;10.70;99.90
4596;DHT22;2310;49.978;8.742;2024-02-04T06:35:27;10.60;99.90
4596;DHT22;2310;49.978;8.742;2024-02-04T06:39:28;10.70;99.90
4596;DHT22;2310;49.978;8.742;2024-02-04T06:43:30;10.70;99.90
4596;DHT22;2310;49.978;8.742;2024-02-04T06:47:33;10.70;99.90
4596;DHT22;2310;49.978;8.742;2024-02-04T06:51:35;10.60;99.90
4596;DHT22;2310;49.978;8.742;2024-02-04T06:55:36;10.60;99.90
4596;DHT22;2310;49.978;8.742;2024-02-04T06:59:38;10.60;99.90
4596;DHT22;2310;49.978;8.742;2024-02-04T07:03:39;10.50;99.90
4596;DHT22;2310;49.978;8.742;2024-02-04T07:07:41;10.60;99.90
4596;DHT22;2310;49.978;8.742;2024-02-04T07:11:42;10.60;99.90
4596;DHT22;2310;49.978;8.742;2024-02-04T07:15:43;10.60;99.90
4596;DHT22;2310;49.978;8.742;2024-02-04T07:19:45;10.70;99.90
4596;DHT22;2310;49.978;8.742;2024-02-04T07:23:47;10.80;99.90
4596;DHT22;2310;49.978;8.742;2024-02-04T07:27:48;10.60;99.90
4596;DHT22;2310;49.978;8.742;2024-02-04T07:31:50;10.70;99.90
4596;DHT22;2310;49.978;8.742;2024-02-04T07:35:51;10.80;99.90
4596;DHT22;2310;49.978;8.742;2024-02-04T07:39:53;10.80;99.90
4596;DHT22;2310;49.978;8.742;2024-02-04T07:43:54;10.80;99.90
4596;DHT22;2310;49.978;8.742;2024-02-04T07:47:55;10.70;99.90
4596;DHT22;2310;49.978;8.742;2024-02-04T07:51:57;10.60;99.90
4596;DHT22;2310;49.978;8.742;2024-02-04T07:55:58;10.80;99.90
4596;DHT22;2310;49.978;8.742;2024-02-04T08:00:00;10.80;99.90
4596;DHT22;2310;49.978;8.742;2024-02-04T08:04:05;10.80;99.90
4596;DHT22;2310;49.978;8.742;2024-02-04T08:08:08;10.80;99.90
4596;DHT22;2310;49.978;8.742;2024-02-04T08:12:10;10.70;99.90
4596;DHT22;2310;49.978;8.742;2024-02-04T08:16:12;10.50;99.90
4596;DHT22;2310;49.978;8.742;2024-02-04T08:20:13;10.70;99.90
4596;DHT22;2310;49.978;8.742;2024-02-04T08:24:15;10.70;99.90
4596;DHT22;2310;49.978;8.742;2024-02-04T08:28:17;10.50;99.90
4596;DHT22;2310;49.978;8.742;2024-02-04T08:32:18;10.40;99.90
4596;DHT22;2310;49.978;8.742;2024-02-04T08:36:19;10.50;99.90
4596;DHT22;2310;49.978;8.742;2024-02-04T08:40:21;10.60;99.90
4596;DHT22;2310;49.978;8.742;2024-02-04T08:44:23;10.70;99.90
4596;DHT22;2310;49.978;8.742;2024-02-04T08:48:26;10.70;99.90
4596;DHT22;2310;49.978;8.742;2024-02-04T08:52:27;10.80;99.90
4596;DHT22;2310;49.978;8.742;2024-02-04T08:56:29;10.90;99.90
4596;DHT22;2310;49.978;8.742;2024-02-04T09:00:30;11.00;99.90
4596;DHT22;2310;49.978;8.742;2024-02-04T09:04:32;10.90;99.90
4596;DHT22;2310;49.978;8.742;2024-02-04T09:08:33;10.90;99.90
4596;DHT22;2310;49.978;8.742;2024-02-04T09:12:34;10.70;99.90
4596;DHT22;2310;49.978;8.742;2024-02-04T09:16:39;10.70;99.90
4596;DHT22;2310;49.978;8.742;2024-02-04T09:20:40;10.70;99.90
4596;DHT22;2310;49.978;8.742;2024-02-04T09:24:42;10.90;99.90
4596;DHT22;2310;49.978;8.742;2024-02-04T09:28:43;10.90;99.90
4596;DHT22;2310;49.978;8.742;2024-02-04T09:32:45;11.00;99.90
4596;DHT22;2310;49.978;8.742;2024-02-04T09:36:47;11.00;99.90
4596;DHT22;2310;49.978;8.742;2024-02-04T09:40:49;11.00;99.90
4596;DHT22;2310;49.978;8.742;2024-02-04T09:44:51;11.10;99.90
4596;DHT22;2310;49.978;8.742;2024-02-04T09:48:55;11.10;99.90
4596;DHT22;2310;49.978;8.742;2024-02-04T09:52:58;11.10;99.90
4596;DHT22;2310;49.978;8.742;2024-02-04T09:57:03;11.30;99.90
4596;DHT22;2310;49.978;8.742;2024-02-04T10:01:05;11.30;99.90
4596;DHT22;2310;49.978;8.742;2024-02-04T10:05:09;11.40;99.90
4596;DHT22;2310;49.978;8.742;2024-02-04T10:09:12;11.70;99.90
4596;DHT22;2310;49.978;8.742;2024-02-04T10:13:13;11.60;99.90
4596;DHT22;2310;49.978;8.742;2024-02-04T10:17:15;11.60;99.90
4596;DHT22;2310;49.978;8.742;2024-02-04T10:21:18;11.40;99.90
4596;DHT22;2310;49.978;8.742;2024-02-04T10:25:21;11.50;99.90
4596;DHT22;2310;49.978;8.742;2024-02-04T10:29:23;11.50;99.90
4596;DHT22;2310;49.978;8.742;2024-02-04T10:33:25;11.50;99.90
4596;DHT22;2310;49.978;8.742;2024-02-04T10:37:27;11.50;99.90
4596;DHT22;2310;49.978;8.742;2024-02-04T10:41:31;11.50;99.90
4596;DHT22;2310;49.978;8.742;2024-02-04T10:45:36;11.50;99.90
4596;DHT22;2310;49.978;8.742;2024-02-04T10:49:41;11.60;99.90
4596;DHT22;2310;49.978;8.742;2024-02-04T10:53:46;11.50;99.90
4596;DHT22;2310;49.978;8.742;2024-02-04T10:57:48;11.60;99.90
4596;DHT22;2310;49.978;8.742;2024-02-04T11:01:50;11.70;99.90
4596;DHT22;2310;49.978;8.742;2024-02-04T11:05:52;11.60;99.90
4596;DHT22;2310;49.978;8.742;2024-02-04T11:09:54;11.70;99.90
4596;DHT22;2310;49.978;8.742;2024-02-04T11:13:58;11.50;99.90
4596;DHT22;2310;49.978;8.742;2024-02-04T11:18:27;11.60;99.90
4596;DHT22;2310;49.978;8.742;2024-02-04T11:22:55;11.70;99.90
4596;DHT22;2310;49.978;8.742;2024-02-04T11:26:54;11.70;99.90
4596;DHT22;2310;49.978;8.742;2024-02-04T11:30:56;11.60;99.90
4596;DHT22;2310;49.978;8.742;2024-02-04T11:34:58;12.00;99.90
4596;DHT22;2310;49.978;8.742;2024-02-04T11:39:11;12.20;99.90
4596;DHT22;2310;49.978;8.742;2024-02-04T11:43:10;12.30;99.90
4596;DHT22;2310;49.978;8.742;2024-02-04T11:47:11;12.10;99.90
4596;DHT22;2310;49.978;8.742;2024-02-04T11:51:12;12.10;99.90
4596;DHT22;2310;49.978;8.742;2024-02-04T11:55:14;12.20;99.90
4596;DHT22;2310;49.978;8.742;2024-02-04T11:59:16;12.10;99.90
4596;DHT22;2310;49.978;8.742;2024-02-04T12:03:30;12.20;99.90
4596;DHT22;2310;49.978;8.742;2024-02-04T12:07:32;12.20;99.90
4596;DHT22;2310;49.978;8.742;2024-02-04T12:11:35;12.10;99.90
4596;DHT22;2310;49.978;8.742;2024-02-04T12:15:37;12.10;99.90
4596;DHT22;2310;49.978;8.742;2024-02-04T12:19:40;12.60;99.90
4596;DHT22;2310;49.978;8.742;2024-02-04T12:23:44;12.60;99.90
4596;DHT22;2310;49.978;8.742;2024-02-04T12:27:45;12.50;99.90
4596;DHT22;2310;49.978;8.742;2024-02-04T12:31:57;12.50;99.90
4596;DHT22;2310;49.978;8.742;2024-02-04T12:35:53;12.20;99.90
4596;DHT22;2310;49.978;8.742;2024-02-04T12:39:57;12.40;99.90
4596;DHT22;2310;49.978;8.742;2024-02-04T12:44:00;12.30;99.90
4596;DHT22;2310;49.978;8.742;2024-02-04T12:48:04;12.30;99.90
4596;DHT22;2310;49.978;8.742;2024-02-04T12:52:06;12.50;99.90
4596;DHT22;2310;49.978;8.742;2024-02-04T12:56:08;12.30;99.90
4596;DHT22;2310;49.978;8.742;2024-02-04T13:00:10;12.30;99.90
4596;DHT22;2310;49.978;8.742;2024-02-04T13:04:13;12.30;99.90
4596;DHT22;2310;49.978;8.742;2024-02-04T13:08:18;12.30;99.90
4596;DHT22;2310;49.978;8.742;2024-02-04T13:12:20;12.20;99.90
4596;DHT22;2310;49.978;8.742;2024-02-04T13:16:22;12.10;99.90
4596;DHT22;2310;49.978;8.742;2024-02-04T13:20:25;12.20;99.90
4596;DHT22;2310;49.978;8.742;2024-02-04T13:24:29;12.20;99.90
4596;DHT22;2310;49.978;8.742;2024-02-04T13:28:31;12.20;99.90
4596;DHT22;2310;49.978;8.742;2024-02-04T13:32:32;12.30;99.90
4596;DHT22;2310;49.978;8.742;2024-02-04T13:36:33;12.10;99.90
4596;DHT22;2310;49.978;8.742;2024-02-04T13:40:35;12.20;99.90
4596;DHT22;2310;49.978;8.742;2024-02-04T13:44:37;12.20;99.90
4596;DHT22;2310;49.978;8.742;2024-02-04T13:48:38;12.20;99.90
4596;DHT22;2310;49.978;8.742;2024-02-04T13:52:39;12.20;99.90
4596;DHT22;2310;49.978;8.742;2024-02-04T13:56:41;12.30;99.90
4596;DHT22;2310;49.978;8.742;2024-02-04T14:00:43;12.40;99.90
4596;DHT22;2310;49.978;8.742;2024-02-04T14:04:44;12.20;99.90
4596;DHT22;2310;49.978;8.742;2024-02-04T14:08:46;12.30;99.90
4596;DHT22;2310;49.978;8.742;2024-02-04T14:12:48;12.40;99.90
4596;DHT22;2310;49.978;8.742;2024-02-04T14:16:50;12.20;99.90
4596;DHT22;2310;49.978;8.742;2024-02-04T14:20:52;12.30;99.90
4596;DHT22;2310;49.978;8.742;2024-02-04T14:24:53;12.30;99.90
4596;DHT22;2310;49.978;8.742;2024-02-04T14:28:55;12.40;99.90
4596;DHT22;2310;49.978;8.742;2024-02-04T14:32:56;12.30;99.90
4596;DHT22;2310;49.978;8.742;2024-02-04T14:36:58;12.40;99.90
4596;DHT22;2310;49.978;8.742;2024-02-04T14:41:00;12.60;99.90
4596;DHT22;2310;49.978;8.742;2024-02-04T14:45:02;12.50;99.90
4596;DHT22;2310;49.978;8.742;2024-02-04T14:49:04;12.40;99.90
4596;DHT22;2310;49.978;8.742;2024-02-04T14:53:06;12.40;99.90
4596;DHT22;2310;49.978;8.742;2024-02-04T14:57:07;12.30;99.90
4596;DHT22;2310;49.978;8.742;2024-02-04T15:01:09;12.40;99.90
4596;DHT22;2310;49.978;8.742;2024-02-04T15:05:11;12.40;99.90
4596;DHT22;2310;49.978;8.742;2024-02-04T15:09:14;12.50;99.90
4596;DHT22;2310;49.978;8.742;2024-02-04T15:13:16;12.60;99.90
4596;DHT22;2310;49.978;8.742;2024-02-04T15:17:18;12.50;99.90
4596;DHT22;2310;49.978;8.742;2024-02-04T15:21:21;12.40;99.90
4596;DHT22;2310;49.978;8.742;2024-02-04T15:25:25;12.50;99.90
4596;DHT22;2310;49.978;8.742;2024-02-04T15:29:26;12.50;99.90
4596;DHT22;2310;49.978;8.742;2024-02-04T15:33:28;12.50;99.90
4596;DHT22;2310;49.978;8.742;2024-02-04T15:37:31;12.30;99.90
4596;DHT22;2310;49.978;8.742;2024-02-04T15:41:32;12.40;99.90
4596;DHT22;2310;49.978;8.742;2024-02-04T15:45:34;12.30;99.90
4596;DHT22;2310;49.978;8.742;2024-02-04T15:49:39;12.30;99.90
4596;DHT22;2310;49.978;8.742;2024-02-04T15:53:42;12.30;99.90
4596;DHT22;2310;49.978;8.742;2024-02-04T15:57:49;12.30;99.90
4596;DHT22;2310;49.978;8.742;2024-02-04T16:01:51;12.30;99.90
4596;DHT22;2310;49.978;8.742;2024-02-04T16:05:53;12.30;99.90
4596;DHT22;2310;49.978;8.742;2024-02-04T16:09:55;12.20;99.90
4596;DHT22;2310;49.978;8.742;2024-02-04T16:13:59;12.20;99.90
4596;DHT22;2310;49.978;8.742;2024-02-04T16:18:03;12.00;99.90
4596;DHT22;2310;49.978;8.742;2024-02-04T16:22:05;12.10;99.90
4596;DHT22;2310;49.978;8.742;2024-02-04T16:26:06;12.10;99.90
4596;DHT22;2310;49.978;8.742;2024-02-04T16:30:09;12.10;99.90
4596;DHT22;2310;49.978;8.742;2024-02-04T16:34:11;12.10;99.90
4596;DHT22;2310;49.978;8.742;2024-02-04T16:38:13;12.00;99.90
4596;DHT22;2310;49.978;8.742;2024-02-04T16:42:15;12.10;99.90
4596;DHT22;2310;49.978;8.742;2024-02-04T16:46:16;12.10;99.90
4596;DHT22;2310;49.978;8.742;2024-02-04T16:50:18;12.20;99.90
4596;DHT22;2310;49.978;8.742;2024-02-04T16:54:19;12.20;99.90
4596;DHT22;2310;49.978;8.742;2024-02-04T16:58:24;12.30;99.90
4596;DHT22;2310;49.978;8.742;2024-02-04T17:02:25;12.10;99.90
4596;DHT22;2310;49.978;8.742;2024-02-04T17:06:27;12.10;99.90
4596;DHT22;2310;49.978;8.742;2024-02-04T17:10:32;12.10;99.90
4596;DHT22;2310;49.978;8.742;2024-02-04T17:14:34;12.20;99.90
4596;DHT22;2310;49.978;8.742;2024-02-04T17:19:01;12.30;99.90
4596;DHT22;2310;49.978;8.742;2024-02-04T17:23:07;12.10;99.90
4596;DHT22;2310;49.978;8.742;2024-02-04T17:27:06;12.10;99.90
4596;DHT22;2310;49.978;8.742;2024-02-04T17:31:08;12.20;99.90
4596;DHT22;2310;49.978;8.742;2024-02-04T17:35:10;12.20;99.90
4596;DHT22;2310;49.978;8.742;2024-02-04T17:39:12;12.10;99.90
4596;DHT22;2310;49.978;8.742;2024-02-04T17:43:14;12.10;99.90
4596;DHT22;2310;49.978;8.742;2024-02-04T17:47:15;12.10;99.90
4596;DHT22;2310;49.978;8.742;2024-02-04T17:51:17;12.10;99.90
4596;DHT22;2310;49.978;8.742;2024-02-04T17:55:19;12.00;99.90
4596;DHT22;2310;49.978;8.742;2024-02-04T17:59:21;12.00;99.90
4596;DHT22;2310;49.978;8.742;2024-02-04T18:03:22;12.00;99.90
4596;DHT22;2310;49.978;8.742;2024-02-04T18:07:25;11.90;99.90
4596;DHT22;2310;49.978;8.742;2024-02-04T18:11:26;11.90;99.90
4596;DHT22;2310;49.978;8.742;2024-02-04T18:15:28;11.90;99.90
4596;DHT22;2310;49.978;8.742;2024-02-04T18:19:29;11.80;99.90
4596;DHT22;2310;49.978;8.742;2024-02-04T18:23:31;11.80;99.90
4596;DHT22;2310;49.978;8.742;2024-02-04T18:27:33;11.70;99.90
4596;DHT22;2310;49.978;8.742;2024-02-04T18:31:37;11.80;99.90
4596;DHT22;2310;49.978;8.742;2024-02-04T18:35:39;11.80;99.90
4596;DHT22;2310;49.978;8.742;2024-02-04T18:39:41;11.90;99.90
4596;DHT22;2310;49.978;8.742;2024-02-04T18:43:45;11.70;99.90
4596;DHT22;2310;49.978;8.742;2024-02-04T18:47:47;11.80;99.90
4596;DHT22;2310;49.978;8.742;2024-02-04T18:51:49;11.70;99.90
4596;DHT22;2310;49.978;8.742;2024-02-04T18:55:51;11.70;99.90
4596;DHT22;2310;49.978;8.742;2024-02-04T18:59:52;11.80;99.90
4596;DHT22;2310;49.978;8.742;2024-02-04T19:03:54;11.60;99.90
4596;DHT22;2310;49.978;8.742;2024-02-04T19:07:57;11.60;99.90
4596;DHT22;2310;49.978;8.742;2024-02-04T19:11:59;11.50;99.90
4596;DHT22;2310;49.978;8.742;2024-02-04T19:16:01;11.60;99.90
4596;DHT22;2310;49.978;8.742;2024-02-04T19:20:03;11.50;99.90
4596;DHT22;2310;49.978;8.742;2024-02-04T19:24:05;11.50;99.90
4596;DHT22;2310;49.978;8.742;2024-02-04T19:28:07;11.50;99.90
4596;DHT22;2310;49.978;8.742;2024-02-04T19:32:09;11.40;99.90
4596;DHT22;2310;49.978;8.742;2024-02-04T19:36:10;11.50;99.90
4596;DHT22;2310;49.978;8.742;2024-02-04T19:40:13;11.60;99.90
4596;DHT22;2310;49.978;8.742;2024-02-04T19:44:14;11.60;99.90
4596;DHT22;2310;49.978;8.742;2024-02-04T19:48:17;11.60;99.90
4596;DHT22;2310;49.978;8.742;2024-02-04T19:52:19;11.50;99.90
4596;DHT22;2310;49.978;8.742;2024-02-04T19:56:21;11.50;99.90
4596;DHT22;2310;49.978;8.742;2024-02-04T20:00:23;11.50;99.90
4596;DHT22;2310;49.978;8.742;2024-02-04T20:04:24;11.60;99.90
4596;DHT22;2310;49.978;8.742;2024-02-04T20:08:25;11.60;99.90
4596;DHT22;2310;49.978;8.742;2024-02-04T20:12:27;11.50;99.90
4596;DHT22;2310;49.978;8.742;2024-02-04T20:16:30;11.60;99.90
4596;DHT22;2310;49.978;8.742;2024-02-04T20:20:31;11.60;99.90
4596;DHT22;2310;49.978;8.742;2024-02-04T20:24:33;11.50;99.90
4596;DHT22;2310;49.978;8.742;2024-02-04T20:28:35;11.60;99.90
4596;DHT22;2310;49.978;8.742;2024-02-04T20:32:36;11.60;99.90
4596;DHT22;2310;49.978;8.742;2024-02-04T20:36:38;11.60;99.90
4596;DHT22;2310;49.978;8.742;2024-02-04T20:40:39;11.60;99.90
4596;DHT22;2310;49.978;8.742;2024-02-04T20:44:42;11.60;99.90
4596;DHT22;2310;49.978;8.742;2024-02-04T20:48:44;11.50;99.90
4596;DHT22;2310;49.978;8.742;2024-02-04T20:52:45;11.50;99.90
4596;DHT22;2310;49.978;8.742;2024-02-04T20:56:47;11.50;99.90
4596;DHT22;2310;49.978;8.742;2024-02-04T21:00:48;11.40;99.90
4596;DHT22;2310;49.978;8.742;2024-02-04T21:04:50;11.50;99.90
4596;DHT22;2310;49.978;8.742;2024-02-04T21:08:51;11.50;99.90
4596;DHT22;2310;49.978;8.742;2024-02-04T21:12:53;11.40;99.90
4596;DHT22;2310;49.978;8.742;2024-02-04T21:16:54;11.60;99.90
4596;DHT22;2310;49.978;8.742;2024-02-04T21:20:55;11.50;99.90
4596;DHT22;2310;49.978;8.742;2024-02-04T21:24:57;11.50;99.90
4596;DHT22;2310;49.978;8.742;2024-02-04T21:29:00;11.40;99.90
4596;DHT22;2310;49.978;8.742;2024-02-04T21:33:02;11.40;99.90
4596;DHT22;2310;49.978;8.742;2024-02-04T21:37:03;11.40;99.90
4596;DHT22;2310;49.978;8.742;2024-02-04T21:41:05;11.40;99.90
4596;DHT22;2310;49.978;8.742;2024-02-04T21:45:08;11.50;99.90
4596;DHT22;2310;49.978;8.742;2024-02-04T21:49:09;11.50;99.90
4596;DHT22;2310;49.978;8.742;2024-02-04T21:53:11;11.60;99.90
4596;DHT22;2310;49.978;8.742;2024-02-04T21:57:12;11.50;99.90
4596;DHT22;2310;49.978;8.742;2024-02-04T22:01:13;11.70;99.90
4596;DHT22;2310;49.978;8.742;2024-02-04T22:05:15;11.60;99.90
4596;DHT22;2310;49.978;8.742;2024-02-04T22:09:17;11.50;99.90
4596;DHT22;2310;49.978;8.742;2024-02-04T22:13:21;11.40;99.90
4596;DHT22;2310;49.978;8.742;2024-02-04T22:17:23;11.40;99.90
4596;DHT22;2310;49.978;8.742;2024-02-04T22:21:24;11.40;99.90
4596;DHT22;2310;49.978;8.742;2024-02-04T22:25:25;11.40;99.90
4596;DHT22;2310;49.978;8.742;2024-02-04T22:29:28;11.30;99.90
4596;DHT22;2310;49.978;8.742;2024-02-04T22:33:29;11.40;99.90
4596;DHT22;2310;49.978;8.742;2024-02-04T22:37:31;11.40;99.90
4596;DHT22;2310;49.978;8.742;2024-02-04T22:41:33;11.40;99.90
4596;DHT22;2310;49.978;8.742;2024-02-04T22:45:35;11.40;99.90
4596;DHT22;2310;49.978;8.742;2024-02-04T22:49:36;11.40;99.90
4596;DHT22;2310;49.978;8.742;2024-02-04T22:53:38;11.30;99.90
4596;DHT22;2310;49.978;8.742;2024-02-04T22:57:40;11.30;99.90
4596;DHT22;2310;49.978;8.742;2024-02-04T23:01:41;11.40;99.90
4596;DHT22;2310;49.978;8.742;2024-02-04T23:05:43;11.40;99.90
4596;DHT22;2310;49.978;8.742;2024-02-04T23:09:44;11.40;99.90
4596;DHT22;2310;49.978;8.742;2024-02-04T23:13:46;11.40;99.90
4596;DHT22;2310;49.978;8.742;2024-02-04T23:17:51;11.30;99.90
4596;DHT22;2310;49.978;8.742;2024-02-04T23:21:53;11.40;99.90
4596;DHT22;2310;49.978;8.742;2024-02-04T23:25:54;11.50;99.90
4596;DHT22;2310;49.978;8.742;2024-02-04T23:29:56;11.40;99.90
4596;DHT22;2310;49.978;8.742;2024-02-04T23:33:57;11.40;99.90
4596;DHT22;2310;49.978;8.742;2024-02-04T23:37:58;11.30;99.90
4596;DHT22;2310;49.978;8.742;2024-02-04T23:42:00;11.40;99.90
4596;DHT22;2310;49.978;8.742;2024-02-04T23:46:01;11.20;99.90
4596;DHT22;2310;49.978;8.742;2024-02-04T23:50:03;11.30;99.90
4596;DHT22;2310;49.978;8.742;2024-02-04T23:54:07;11.30;99.90
4596;DHT22;2310;49.978;8.742;2024-02-04T23:58:08;11.10;99.90
